sensor_id;sensor_type;location;lat;lon;timestamp;P1;durP1;ratioP1;P2;durP2;ratioP2
38937;SDS011;24727;51.974;20.868;2022-08-21T00:00:05;11.77;;;7.25;;
38937;SDS011;24727;51.974;20.868;2022-08-21T00:02:37;10.77;;;8.07;;
38937;SDS011;24727;51.974;20.868;2022-08-21T00:05:09;8.43;;;7.53;;
38937;SDS011;24727;51.974;20.868;2022-08-21T00:07:36;9.52;;;7.68;;
38937;SDS011;24727;51.974;20.868;2022-08-21T00:10:03;13.50;;;8.25;;
38937;SDS011;24727;51.974;20.868;2022-08-21T00:12:30;9.27;;;8.20;;
38937;SDS011;24727;51.974;20.868;2022-08-21T00:14:57;11.18;;;7.95;;
38937;SDS011;24727;51.974;20.868;2022-08-21T00:17:23;12.20;;;7.72;;
38937;SDS011;24727;51.974;20.868;2022-08-21T00:19:49;11.52;;;8.70;;
38937;SDS011;24727;51.974;20.868;2022-08-21T00:22:15;8.80;;;7.80;;
38937;SDS011;24727;51.974;20.868;2022-08-21T00:24:43;11.60;;;8.05;;
38937;SDS011;24727;51.974;20.868;2022-08-21T00:27:16;9.55;;;7.63;;
38937;SDS011;24727;51.974;20.868;2022-08-21T00:29:42;9.32;;;7.25;;
38937;SDS011;24727;51.974;20.868;2022-08-21T00:32:08;8.65;;;7.75;;
38937;SDS011;24727;51.974;20.868;2022-08-21T00:34:40;8.13;;;7.03;;
38937;SDS011;24727;51.974;20.868;2022-08-21T00:37:20;9.70;;;6.90;;
38937;SDS011;24727;51.974;20.868;2022-08-21T00:39:48;7.72;;;6.65;;
38937;SDS011;24727;51.974;20.868;2022-08-21T00:42:16;9.27;;;5.88;;
38937;SDS011;24727;51.974;20.868;2022-08-21T00:44:44;10.77;;;6.60;;
38937;SDS011;24727;51.974;20.868;2022-08-21T00:47:11;11.82;;;6.55;;
38937;SDS011;24727;51.974;20.868;2022-08-21T00:49:38;9.13;;;6.97;;
38937;SDS011;24727;51.974;20.868;2022-08-21T00:52:05;9.90;;;7.28;;
38937;SDS011;24727;51.974;20.868;2022-08-21T00:54:34;9.35;;;6.65;;
38937;SDS011;24727;51.974;20.868;2022-08-21T00:57:04;8.57;;;6.80;;
38937;SDS011;24727;51.974;20.868;2022-08-21T00:59:35;8.73;;;6.63;;
38937;SDS011;24727;51.974;20.868;2022-08-21T01:02:05;9.77;;;6.50;;
38937;SDS011;24727;51.974;20.868;2022-08-21T01:04:32;10.10;;;7.00;;
38937;SDS011;24727;51.974;20.868;2022-08-21T01:06:58;9.40;;;6.57;;
38937;SDS011;24727;51.974;20.868;2022-08-21T01:09:27;8.82;;;7.28;;
38937;SDS011;24727;51.974;20.868;2022-08-21T01:11:53;11.60;;;7.70;;
38937;SDS011;24727;51.974;20.868;2022-08-21T01:14:20;8.48;;;6.50;;
38937;SDS011;24727;51.974;20.868;2022-08-21T01:16:48;8.68;;;6.55;;
38937;SDS011;24727;51.974;20.868;2022-08-21T01:19:17;7.50;;;6.40;;
38937;SDS011;24727;51.974;20.868;2022-08-21T01:21:45;7.55;;;5.90;;
38937;SDS011;24727;51.974;20.868;2022-08-21T01:24:11;9.80;;;6.47;;
38937;SDS011;24727;51.974;20.868;2022-08-21T01:26:39;9.23;;;6.25;;
38937;SDS011;24727;51.974;20.868;2022-08-21T01:29:08;9.27;;;6.40;;
38937;SDS011;24727;51.974;20.868;2022-08-21T01:31:40;8.63;;;6.60;;
38937;SDS011;24727;51.974;20.868;2022-08-21T01:34:07;7.75;;;6.95;;
38937;SDS011;24727;51.974;20.868;2022-08-21T01:36:34;10.80;;;7.05;;
38937;SDS011;24727;51.974;20.868;2022-08-21T01:39:02;11.68;;;6.88;;
38937;SDS011;24727;51.974;20.868;2022-08-21T01:41:29;9.73;;;7.05;;
38937;SDS011;24727;51.974;20.868;2022-08-21T01:43:56;9.40;;;6.80;;
38937;SDS011;24727;51.974;20.868;2022-08-21T01:46:23;8.70;;;7.13;;
38937;SDS011;24727;51.974;20.868;2022-08-21T01:48:49;7.85;;;6.70;;
38937;SDS011;24727;51.974;20.868;2022-08-21T01:51:15;6.80;;;6.07;;
38937;SDS011;24727;51.974;20.868;2022-08-21T01:53:53;8.70;;;7.13;;
38937;SDS011;24727;51.974;20.868;2022-08-21T01:56:19;12.55;;;7.15;;
38937;SDS011;24727;51.974;20.868;2022-08-21T01:58:46;10.68;;;7.30;;
38937;SDS011;24727;51.974;20.868;2022-08-21T02:01:14;11.02;;;6.30;;
38937;SDS011;24727;51.974;20.868;2022-08-21T02:03:49;9.13;;;6.30;;
38937;SDS011;24727;51.974;20.868;2022-08-21T02:06:15;7.15;;;5.93;;
38937;SDS011;24727;51.974;20.868;2022-08-21T02:08:43;11.75;;;7.10;;
38937;SDS011;24727;51.974;20.868;2022-08-21T02:11:10;11.32;;;6.70;;
38937;SDS011;24727;51.974;20.868;2022-08-21T02:13:36;8.98;;;6.80;;
38937;SDS011;24727;51.974;20.868;2022-08-21T02:16:02;7.40;;;6.60;;
38937;SDS011;24727;51.974;20.868;2022-08-21T02:18:29;9.43;;;6.63;;
38937;SDS011;24727;51.974;20.868;2022-08-21T02:20:56;9.95;;;7.50;;
38937;SDS011;24727;51.974;20.868;2022-08-21T02:23:22;7.90;;;7.10;;
38937;SDS011;24727;51.974;20.868;2022-08-21T02:25:49;13.40;;;7.00;;
38937;SDS011;24727;51.974;20.868;2022-08-21T02:28:15;8.68;;;7.45;;
38937;SDS011;24727;51.974;20.868;2022-08-21T02:30:47;10.30;;;6.88;;
38937;SDS011;24727;51.974;20.868;2022-08-21T02:33:15;11.05;;;7.30;;
38937;SDS011;24727;51.974;20.868;2022-08-21T02:35:41;8.07;;;6.93;;
38937;SDS011;24727;51.974;20.868;2022-08-21T02:38:10;10.15;;;7.13;;
38937;SDS011;24727;51.974;20.868;2022-08-21T02:40:47;8.30;;;6.43;;
38937;SDS011;24727;51.974;20.868;2022-08-21T02:43:16;9.90;;;7.25;;
38937;SDS011;24727;51.974;20.868;2022-08-21T02:45:44;9.18;;;7.18;;
38937;SDS011;24727;51.974;20.868;2022-08-21T02:48:12;7.03;;;6.18;;
38937;SDS011;24727;51.974;20.868;2022-08-21T02:50:43;9.10;;;7.38;;
38937;SDS011;24727;51.974;20.868;2022-08-21T02:53:12;13.95;;;6.97;;
38937;SDS011;24727;51.974;20.868;2022-08-21T02:55:44;10.30;;;6.22;;
38937;SDS011;24727;51.974;20.868;2022-08-21T02:58:12;11.70;;;6.60;;
38937;SDS011;24727;51.974;20.868;2022-08-21T03:00:40;11.32;;;7.57;;
38937;SDS011;24727;51.974;20.868;2022-08-21T03:03:06;9.65;;;6.28;;
38937;SDS011;24727;51.974;20.868;2022-08-21T03:05:34;7.85;;;6.85;;
38937;SDS011;24727;51.974;20.868;2022-08-21T03:08:03;10.95;;;7.57;;
38937;SDS011;24727;51.974;20.868;2022-08-21T03:10:35;9.75;;;6.53;;
38937;SDS011;24727;51.974;20.868;2022-08-21T03:13:01;11.63;;;7.90;;
38937;SDS011;24727;51.974;20.868;2022-08-21T03:15:28;7.95;;;6.28;;
38937;SDS011;24727;51.974;20.868;2022-08-21T03:17:54;7.90;;;6.88;;
38937;SDS011;24727;51.974;20.868;2022-08-21T03:20:23;9.85;;;7.55;;
38937;SDS011;24727;51.974;20.868;2022-08-21T03:22:51;9.70;;;7.50;;
38937;SDS011;24727;51.974;20.868;2022-08-21T03:25:19;8.93;;;6.63;;
38937;SDS011;24727;51.974;20.868;2022-08-21T03:27:47;10.30;;;7.22;;
38937;SDS011;24727;51.974;20.868;2022-08-21T03:30:15;8.25;;;7.45;;
38937;SDS011;24727;51.974;20.868;2022-08-21T03:32:48;6.22;;;5.40;;
38937;SDS011;24727;51.974;20.868;2022-08-21T03:35:16;10.63;;;7.63;;
38937;SDS011;24727;51.974;20.868;2022-08-21T03:37:43;11.40;;;7.53;;
38937;SDS011;24727;51.974;20.868;2022-08-21T03:40:12;9.05;;;8.15;;
38937;SDS011;24727;51.974;20.868;2022-08-21T03:42:40;10.52;;;8.13;;
38937;SDS011;24727;51.974;20.868;2022-08-21T03:45:06;7.55;;;6.25;;
38937;SDS011;24727;51.974;20.868;2022-08-21T03:47:33;9.80;;;7.38;;
38937;SDS011;24727;51.974;20.868;2022-08-21T03:50:03;7.95;;;6.60;;
38937;SDS011;24727;51.974;20.868;2022-08-21T03:52:30;9.65;;;7.35;;
38937;SDS011;24727;51.974;20.868;2022-08-21T03:54:56;11.23;;;7.05;;
38937;SDS011;24727;51.974;20.868;2022-08-21T03:57:22;6.57;;;5.63;;
38937;SDS011;24727;51.974;20.868;2022-08-21T03:59:48;11.23;;;7.00;;
38937;SDS011;24727;51.974;20.868;2022-08-21T04:02:15;7.93;;;7.00;;
38937;SDS011;24727;51.974;20.868;2022-08-21T04:04:46;9.47;;;7.10;;
38937;SDS011;24727;51.974;20.868;2022-08-21T04:07:12;9.25;;;7.15;;
38937;SDS011;24727;51.974;20.868;2022-08-21T04:09:38;8.88;;;8.00;;
38937;SDS011;24727;51.974;20.868;2022-08-21T04:12:05;8.60;;;7.15;;
38937;SDS011;24727;51.974;20.868;2022-08-21T04:14:32;9.60;;;8.13;;
38937;SDS011;24727;51.974;20.868;2022-08-21T04:17:04;8.38;;;7.20;;
38937;SDS011;24727;51.974;20.868;2022-08-21T04:19:30;10.30;;;7.10;;
38937;SDS011;24727;51.974;20.868;2022-08-21T04:21:57;7.55;;;6.82;;
38937;SDS011;24727;51.974;20.868;2022-08-21T04:24:23;10.63;;;8.40;;
38937;SDS011;24727;51.974;20.868;2022-08-21T04:26:49;8.60;;;7.78;;
38937;SDS011;24727;51.974;20.868;2022-08-21T04:29:15;8.73;;;7.28;;
38937;SDS011;24727;51.974;20.868;2022-08-21T04:31:49;8.18;;;7.35;;
38937;SDS011;24727;51.974;20.868;2022-08-21T04:34:17;7.85;;;6.85;;
38937;SDS011;24727;51.974;20.868;2022-08-21T04:36:43;9.68;;;7.40;;
38937;SDS011;24727;51.974;20.868;2022-08-21T04:39:10;8.75;;;7.32;;
38937;SDS011;24727;51.974;20.868;2022-08-21T04:41:36;9.80;;;7.63;;
38937;SDS011;24727;51.974;20.868;2022-08-21T04:44:03;8.77;;;7.82;;
38937;SDS011;24727;51.974;20.868;2022-08-21T04:46:29;7.88;;;7.07;;
38937;SDS011;24727;51.974;20.868;2022-08-21T04:48:55;9.30;;;8.18;;
38937;SDS011;24727;51.974;20.868;2022-08-21T04:51:22;13.20;;;7.60;;
38937;SDS011;24727;51.974;20.868;2022-08-21T04:54:27;11.60;;;8.10;;
38937;SDS011;24727;51.974;20.868;2022-08-21T04:56:52;9.23;;;8.02;;
38937;SDS011;24727;51.974;20.868;2022-08-21T04:59:28;10.48;;;8.32;;
38937;SDS011;24727;51.974;20.868;2022-08-21T05:02:08;9.33;;;7.70;;
38937;SDS011;24727;51.974;20.868;2022-08-21T05:04:36;12.40;;;8.15;;
38937;SDS011;24727;51.974;20.868;2022-08-21T05:07:09;10.75;;;8.13;;
38937;SDS011;24727;51.974;20.868;2022-08-21T05:09:37;10.85;;;7.45;;
38937;SDS011;24727;51.974;20.868;2022-08-21T05:12:04;12.07;;;7.22;;
38937;SDS011;24727;51.974;20.868;2022-08-21T05:14:31;9.88;;;7.03;;
38937;SDS011;24727;51.974;20.868;2022-08-21T05:16:56;8.35;;;6.35;;
38937;SDS011;24727;51.974;20.868;2022-08-21T05:19:23;6.72;;;6.00;;
38937;SDS011;24727;51.974;20.868;2022-08-21T05:21:52;7.22;;;6.53;;
38937;SDS011;24727;51.974;20.868;2022-08-21T05:24:18;11.48;;;5.75;;
38937;SDS011;24727;51.974;20.868;2022-08-21T05:26:44;7.80;;;6.30;;
38937;SDS011;24727;51.974;20.868;2022-08-21T05:29:11;9.52;;;6.07;;
38937;SDS011;24727;51.974;20.868;2022-08-21T05:31:39;7.07;;;6.03;;
38937;SDS011;24727;51.974;20.868;2022-08-21T05:34:11;7.75;;;6.05;;
38937;SDS011;24727;51.974;20.868;2022-08-21T05:36:39;6.80;;;6.20;;
38937;SDS011;24727;51.974;20.868;2022-08-21T05:39:07;6.57;;;5.85;;
38937;SDS011;24727;51.974;20.868;2022-08-21T05:41:33;7.75;;;6.03;;
38937;SDS011;24727;51.974;20.868;2022-08-21T05:44:01;6.97;;;6.28;;
38937;SDS011;24727;51.974;20.868;2022-08-21T05:46:28;7.30;;;5.63;;
38937;SDS011;24727;51.974;20.868;2022-08-21T05:48:54;7.82;;;6.03;;
38937;SDS011;24727;51.974;20.868;2022-08-21T05:51:20;6.97;;;6.07;;
38937;SDS011;24727;51.974;20.868;2022-08-21T05:53:46;5.88;;;5.35;;
38937;SDS011;24727;51.974;20.868;2022-08-21T05:56:12;7.97;;;5.75;;
38937;SDS011;24727;51.974;20.868;2022-08-21T05:58:40;7.82;;;5.78;;
38937;SDS011;24727;51.974;20.868;2022-08-21T06:01:07;7.75;;;5.72;;
38937;SDS011;24727;51.974;20.868;2022-08-21T06:03:35;6.70;;;6.10;;
38937;SDS011;24727;51.974;20.868;2022-08-21T06:06:03;6.35;;;5.75;;
38937;SDS011;24727;51.974;20.868;2022-08-21T06:08:30;10.98;;;7.00;;
38937;SDS011;24727;51.974;20.868;2022-08-21T06:10:57;11.35;;;6.90;;
38937;SDS011;24727;51.974;20.868;2022-08-21T06:13:25;6.93;;;5.55;;
38937;SDS011;24727;51.974;20.868;2022-08-21T06:16:05;6.82;;;6.10;;
38937;SDS011;24727;51.974;20.868;2022-08-21T06:18:34;10.40;;;6.23;;
38937;SDS011;24727;51.974;20.868;2022-08-21T06:21:01;7.80;;;6.13;;
38937;SDS011;24727;51.974;20.868;2022-08-21T06:23:27;7.63;;;6.85;;
38937;SDS011;24727;51.974;20.868;2022-08-21T06:25:53;7.53;;;6.72;;
38937;SDS011;24727;51.974;20.868;2022-08-21T06:28:19;6.78;;;5.68;;
38937;SDS011;24727;51.974;20.868;2022-08-21T06:30:45;8.45;;;6.85;;
38937;SDS011;24727;51.974;20.868;2022-08-21T06:33:12;7.10;;;6.40;;
38937;SDS011;24727;51.974;20.868;2022-08-21T06:35:38;9.00;;;6.88;;
38937;SDS011;24727;51.974;20.868;2022-08-21T06:38:05;7.50;;;6.80;;
38937;SDS011;24727;51.974;20.868;2022-08-21T06:40:31;6.78;;;5.82;;
38937;SDS011;24727;51.974;20.868;2022-08-21T06:42:58;9.52;;;6.55;;
38937;SDS011;24727;51.974;20.868;2022-08-21T06:45:32;7.22;;;6.47;;
38937;SDS011;24727;51.974;20.868;2022-08-21T06:47:58;6.82;;;6.22;;
38937;SDS011;24727;51.974;20.868;2022-08-21T06:50:24;6.90;;;6.30;;
38937;SDS011;24727;51.974;20.868;2022-08-21T06:52:57;9.68;;;6.85;;
38937;SDS011;24727;51.974;20.868;2022-08-21T06:55:28;6.88;;;6.13;;
38937;SDS011;24727;51.974;20.868;2022-08-21T06:57:56;5.38;;;4.88;;
38937;SDS011;24727;51.974;20.868;2022-08-21T07:00:23;6.05;;;5.13;;
38937;SDS011;24727;51.974;20.868;2022-08-21T07:02:50;6.25;;;5.75;;
38937;SDS011;24727;51.974;20.868;2022-08-21T07:05:16;8.70;;;6.80;;
38937;SDS011;24727;51.974;20.868;2022-08-21T07:07:45;5.28;;;4.55;;
38937;SDS011;24727;51.974;20.868;2022-08-21T07:10:11;7.85;;;6.57;;
38937;SDS011;24727;51.974;20.868;2022-08-21T07:12:38;6.63;;;6.03;;
38937;SDS011;24727;51.974;20.868;2022-08-21T07:15:04;9.30;;;5.82;;
38937;SDS011;24727;51.974;20.868;2022-08-21T07:17:30;6.13;;;5.53;;
38937;SDS011;24727;51.974;20.868;2022-08-21T07:19:57;6.50;;;5.90;;
38937;SDS011;24727;51.974;20.868;2022-08-21T07:22:24;8.65;;;6.45;;
38937;SDS011;24727;51.974;20.868;2022-08-21T07:24:53;8.10;;;6.10;;
38937;SDS011;24727;51.974;20.868;2022-08-21T07:27:19;10.43;;;6.57;;
38937;SDS011;24727;51.974;20.868;2022-08-21T07:29:45;7.95;;;5.80;;
38937;SDS011;24727;51.974;20.868;2022-08-21T07:32:11;5.70;;;5.13;;
38937;SDS011;24727;51.974;20.868;2022-08-21T07:34:37;6.20;;;4.82;;
38937;SDS011;24727;51.974;20.868;2022-08-21T07:37:03;9.85;;;5.07;;
38937;SDS011;24727;51.974;20.868;2022-08-21T07:39:29;8.00;;;5.13;;
38937;SDS011;24727;51.974;20.868;2022-08-21T07:41:56;5.28;;;4.78;;
38937;SDS011;24727;51.974;20.868;2022-08-21T07:44:22;7.25;;;4.70;;
38937;SDS011;24727;51.974;20.868;2022-08-21T07:46:48;6.47;;;5.55;;
38937;SDS011;24727;51.974;20.868;2022-08-21T07:49:14;6.00;;;5.18;;
38937;SDS011;24727;51.974;20.868;2022-08-21T07:51:40;5.28;;;4.78;;
38937;SDS011;24727;51.974;20.868;2022-08-21T07:54:06;6.63;;;5.18;;
38937;SDS011;24727;51.974;20.868;2022-08-21T07:56:33;5.10;;;4.60;;
38937;SDS011;24727;51.974;20.868;2022-08-21T07:59:01;6.78;;;5.10;;
38937;SDS011;24727;51.974;20.868;2022-08-21T08:01:28;6.70;;;4.47;;
38937;SDS011;24727;51.974;20.868;2022-08-21T08:03:56;5.35;;;4.03;;
38937;SDS011;24727;51.974;20.868;2022-08-21T08:06:24;4.97;;;4.47;;
38937;SDS011;24727;51.974;20.868;2022-08-21T08:08:51;5.80;;;4.47;;
38937;SDS011;24727;51.974;20.868;2022-08-21T08:11:17;4.53;;;4.13;;
38937;SDS011;24727;51.974;20.868;2022-08-21T08:13:46;7.13;;;4.25;;
38937;SDS011;24727;51.974;20.868;2022-08-21T08:16:14;4.45;;;4.05;;
38937;SDS011;24727;51.974;20.868;2022-08-21T08:21:10;7.18;;;4.10;;
38937;SDS011;24727;51.974;20.868;2022-08-21T08:23:37;8.75;;;4.70;;
38937;SDS011;24727;51.974;20.868;2022-08-21T08:26:03;13.98;;;4.57;;
38937;SDS011;24727;51.974;20.868;2022-08-21T08:28:31;5.00;;;4.40;;
38937;SDS011;24727;51.974;20.868;2022-08-21T08:30:57;4.57;;;4.18;;
38937;SDS011;24727;51.974;20.868;2022-08-21T08:33:25;4.95;;;4.45;;
38937;SDS011;24727;51.974;20.868;2022-08-21T08:35:54;6.22;;;4.28;;
38937;SDS011;24727;51.974;20.868;2022-08-21T08:38:23;4.82;;;3.88;;
38937;SDS011;24727;51.974;20.868;2022-08-21T08:40:52;6.47;;;4.05;;
38937;SDS011;24727;51.974;20.868;2022-08-21T08:43:25;6.53;;;4.57;;
38937;SDS011;24727;51.974;20.868;2022-08-21T08:45:54;4.25;;;3.47;;
38937;SDS011;24727;51.974;20.868;2022-08-21T08:51:33;6.47;;;4.05;;
38937;SDS011;24727;51.974;20.868;2022-08-21T08:54:07;4.35;;;3.95;;
38937;SDS011;24727;51.974;20.868;2022-08-21T08:56:38;6.25;;;4.20;;
38937;SDS011;24727;51.974;20.868;2022-08-21T08:59:09;6.50;;;4.40;;
38937;SDS011;24727;51.974;20.868;2022-08-21T09:01:44;6.07;;;4.07;;
38937;SDS011;24727;51.974;20.868;2022-08-21T09:04:11;5.85;;;3.90;;
38937;SDS011;24727;51.974;20.868;2022-08-21T09:15:27;5.28;;;3.38;;
38937;SDS011;24727;51.974;20.868;2022-08-21T09:18:07;7.57;;;3.65;;
38937;SDS011;24727;51.974;20.868;2022-08-21T09:26:17;3.80;;;3.25;;
38937;SDS011;24727;51.974;20.868;2022-08-21T09:28:50;5.43;;;4.20;;
38937;SDS011;24727;51.974;20.868;2022-08-21T09:31:25;3.70;;;3.00;;
38937;SDS011;24727;51.974;20.868;2022-08-21T09:34:01;4.15;;;3.42;;
38937;SDS011;24727;51.974;20.868;2022-08-21T09:39:04;6.13;;;3.25;;
38937;SDS011;24727;51.974;20.868;2022-08-21T09:41:33;3.20;;;2.90;;
38937;SDS011;24727;51.974;20.868;2022-08-21T09:44:05;3.50;;;3.00;;
38937;SDS011;24727;51.974;20.868;2022-08-21T09:46:33;3.15;;;2.85;;
38937;SDS011;24727;51.974;20.868;2022-08-21T09:49:02;3.47;;;3.17;;
38937;SDS011;24727;51.974;20.868;2022-08-21T09:51:31;3.53;;;3.22;;
38937;SDS011;24727;51.974;20.868;2022-08-21T09:56:39;3.78;;;3.42;;
38937;SDS011;24727;51.974;20.868;2022-08-21T09:59:37;4.78;;;3.08;;
38937;SDS011;24727;51.974;20.868;2022-08-21T10:05:20;4.20;;;3.00;;
38937;SDS011;24727;51.974;20.868;2022-08-21T10:07:52;4.47;;;3.08;;
38937;SDS011;24727;51.974;20.868;2022-08-21T10:10:23;4.53;;;3.13;;
38937;SDS011;24727;51.974;20.868;2022-08-21T10:16:02;3.75;;;3.03;;
38937;SDS011;24727;51.974;20.868;2022-08-21T10:30:21;3.55;;;3.25;;
38937;SDS011;24727;51.974;20.868;2022-08-21T10:35:24;4.57;;;3.42;;
38937;SDS011;24727;51.974;20.868;2022-08-21T10:46:28;5.70;;;3.03;;
38937;SDS011;24727;51.974;20.868;2022-08-21T10:52:43;4.25;;;3.17;;
38937;SDS011;24727;51.974;20.868;2022-08-21T11:00:14;3.35;;;3.05;;
38937;SDS011;24727;51.974;20.868;2022-08-21T11:05:34;5.32;;;2.78;;
38937;SDS011;24727;51.974;20.868;2022-08-21T11:08:10;3.95;;;3.13;;
38937;SDS011;24727;51.974;20.868;2022-08-21T11:16:23;4.38;;;3.15;;
38937;SDS011;24727;51.974;20.868;2022-08-21T11:19:07;4.55;;;2.85;;
38937;SDS011;24727;51.974;20.868;2022-08-21T11:24:29;4.50;;;2.72;;
38937;SDS011;24727;51.974;20.868;2022-08-21T11:29:51;7.00;;;3.20;;
38937;SDS011;24727;51.974;20.868;2022-08-21T11:43:48;3.22;;;2.92;;
38937;SDS011;24727;51.974;20.868;2022-08-21T11:52:07;3.20;;;2.75;;
38937;SDS011;24727;51.974;20.868;2022-08-21T11:54:42;4.47;;;2.63;;
38937;SDS011;24727;51.974;20.868;2022-08-21T11:57:32;5.97;;;3.05;;
38937;SDS011;24727;51.974;20.868;2022-08-21T12:02:58;4.50;;;2.50;;
38937;SDS011;24727;51.974;20.868;2022-08-21T12:05:34;4.20;;;2.70;;
38937;SDS011;24727;51.974;20.868;2022-08-21T12:08:26;2.78;;;2.42;;
38937;SDS011;24727;51.974;20.868;2022-08-21T12:11:09;4.15;;;2.95;;
38937;SDS011;24727;51.974;20.868;2022-08-21T12:16:40;5.65;;;3.13;;
38937;SDS011;24727;51.974;20.868;2022-08-21T12:21:59;4.45;;;2.67;;
38937;SDS011;24727;51.974;20.868;2022-08-21T12:29:59;4.82;;;3.05;;
38937;SDS011;24727;51.974;20.868;2022-08-21T12:32:30;7.30;;;2.85;;
38937;SDS011;24727;51.974;20.868;2022-08-21T12:35:27;6.65;;;3.10;;
38937;SDS011;24727;51.974;20.868;2022-08-21T12:38:03;3.22;;;2.70;;
38937;SDS011;24727;51.974;20.868;2022-08-21T12:40:47;2.78;;;2.58;;
38937;SDS011;24727;51.974;20.868;2022-08-21T12:43:20;2.80;;;2.60;;
38937;SDS011;24727;51.974;20.868;2022-08-21T12:49:00;2.97;;;2.58;;
38937;SDS011;24727;51.974;20.868;2022-08-21T12:54:30;2.63;;;2.42;;
38937;SDS011;24727;51.974;20.868;2022-08-21T12:59:25;3.83;;;3.13;;
38937;SDS011;24727;51.974;20.868;2022-08-21T13:01:51;4.55;;;3.10;;
38937;SDS011;24727;51.974;20.868;2022-08-21T13:04:37;3.05;;;2.67;;
38937;SDS011;24727;51.974;20.868;2022-08-21T13:07:06;2.50;;;2.15;;
38937;SDS011;24727;51.974;20.868;2022-08-21T13:09:47;4.47;;;2.40;;
38937;SDS011;24727;51.974;20.868;2022-08-21T13:12:17;2.90;;;2.47;;
38937;SDS011;24727;51.974;20.868;2022-08-21T13:14:46;3.05;;;2.58;;
38937;SDS011;24727;51.974;20.868;2022-08-21T13:17:17;4.88;;;2.50;;
38937;SDS011;24727;51.974;20.868;2022-08-21T13:20:02;3.83;;;2.60;;
38937;SDS011;24727;51.974;20.868;2022-08-21T13:22:44;3.58;;;2.70;;
38937;SDS011;24727;51.974;20.868;2022-08-21T13:25:11;3.17;;;2.88;;
38937;SDS011;24727;51.974;20.868;2022-08-21T13:27:40;2.67;;;2.47;;
38937;SDS011;24727;51.974;20.868;2022-08-21T13:30:17;3.80;;;2.55;;
38937;SDS011;24727;51.974;20.868;2022-08-21T13:32:47;2.92;;;2.50;;
38937;SDS011;24727;51.974;20.868;2022-08-21T13:35:21;2.30;;;2.20;;
38937;SDS011;24727;51.974;20.868;2022-08-21T13:37:50;4.03;;;2.58;;
38937;SDS011;24727;51.974;20.868;2022-08-21T13:40:20;2.58;;;2.38;;
38937;SDS011;24727;51.974;20.868;2022-08-21T13:42:57;3.03;;;2.53;;
38937;SDS011;24727;51.974;20.868;2022-08-21T13:45:27;3.72;;;1.98;;
38937;SDS011;24727;51.974;20.868;2022-08-21T13:47:56;3.25;;;2.33;;
38937;SDS011;24727;51.974;20.868;2022-08-21T13:50:25;3.88;;;2.60;;
38937;SDS011;24727;51.974;20.868;2022-08-21T13:52:59;3.92;;;2.40;;
38937;SDS011;24727;51.974;20.868;2022-08-21T13:55:36;3.30;;;2.58;;
38937;SDS011;24727;51.974;20.868;2022-08-21T13:58:08;2.75;;;2.40;;
38937;SDS011;24727;51.974;20.868;2022-08-21T14:00:50;3.42;;;2.72;;
38937;SDS011;24727;51.974;20.868;2022-08-21T14:03:31;3.22;;;2.65;;
38937;SDS011;24727;51.974;20.868;2022-08-21T14:05:57;2.60;;;2.40;;
38937;SDS011;24727;51.974;20.868;2022-08-21T14:08:29;2.80;;;2.47;;
38937;SDS011;24727;51.974;20.868;2022-08-21T14:10:56;2.47;;;2.28;;
38937;SDS011;24727;51.974;20.868;2022-08-21T14:13:26;2.78;;;2.58;;
38937;SDS011;24727;51.974;20.868;2022-08-21T14:18:52;4.63;;;2.85;;
38937;SDS011;24727;51.974;20.868;2022-08-21T14:21:27;5.97;;;2.50;;
38937;SDS011;24727;51.974;20.868;2022-08-21T14:24:08;4.80;;;2.17;;
38937;SDS011;24727;51.974;20.868;2022-08-21T14:26:43;5.82;;;2.40;;
38937;SDS011;24727;51.974;20.868;2022-08-21T14:29:14;7.05;;;2.67;;
38937;SDS011;24727;51.974;20.868;2022-08-21T14:31:42;3.15;;;2.78;;
38937;SDS011;24727;51.974;20.868;2022-08-21T14:34:15;4.47;;;2.80;;
38937;SDS011;24727;51.974;20.868;2022-08-21T14:36:42;2.90;;;2.70;;
38937;SDS011;24727;51.974;20.868;2022-08-21T14:39:09;4.97;;;2.85;;
38937;SDS011;24727;51.974;20.868;2022-08-21T14:41:36;3.45;;;3.03;;
38937;SDS011;24727;51.974;20.868;2022-08-21T14:44:04;4.25;;;3.00;;
38937;SDS011;24727;51.974;20.868;2022-08-21T14:46:31;3.60;;;3.30;;
38937;SDS011;24727;51.974;20.868;2022-08-21T14:48:59;6.18;;;2.95;;
38937;SDS011;24727;51.974;20.868;2022-08-21T14:51:25;3.75;;;3.00;;
38937;SDS011;24727;51.974;20.868;2022-08-21T14:53:51;3.53;;;2.83;;
38937;SDS011;24727;51.974;20.868;2022-08-21T14:56:23;3.50;;;3.20;;
38937;SDS011;24727;51.974;20.868;2022-08-21T14:58:51;3.78;;;3.03;;
38937;SDS011;24727;51.974;20.868;2022-08-21T15:01:20;3.30;;;3.00;;
38937;SDS011;24727;51.974;20.868;2022-08-21T15:03:47;13.93;;;3.22;;
38937;SDS011;24727;51.974;20.868;2022-08-21T15:06:19;3.22;;;3.03;;
38937;SDS011;24727;51.974;20.868;2022-08-21T15:08:54;3.75;;;2.55;;
38937;SDS011;24727;51.974;20.868;2022-08-21T15:11:21;3.47;;;3.17;;
38937;SDS011;24727;51.974;20.868;2022-08-21T15:13:52;3.65;;;3.35;;
38937;SDS011;24727;51.974;20.868;2022-08-21T15:18:47;5.68;;;3.20;;
38937;SDS011;24727;51.974;20.868;2022-08-21T15:21:13;4.13;;;3.10;;
38937;SDS011;24727;51.974;20.868;2022-08-21T15:23:39;3.92;;;2.90;;
38937;SDS011;24727;51.974;20.868;2022-08-21T15:26:05;3.60;;;3.30;;
38937;SDS011;24727;51.974;20.868;2022-08-21T15:28:33;4.65;;;3.70;;
38937;SDS011;24727;51.974;20.868;2022-08-21T15:31:00;4.03;;;3.33;;
38937;SDS011;24727;51.974;20.868;2022-08-21T15:33:26;5.05;;;3.88;;
38937;SDS011;24727;51.974;20.868;2022-08-21T15:35:54;3.92;;;3.63;;
38937;SDS011;24727;51.974;20.868;2022-08-21T15:38:20;4.10;;;3.80;;
38937;SDS011;24727;51.974;20.868;2022-08-21T15:40:46;4.75;;;4.35;;
38937;SDS011;24727;51.974;20.868;2022-08-21T15:43:25;8.85;;;3.60;;
38937;SDS011;24727;51.974;20.868;2022-08-21T15:45:54;5.88;;;3.20;;
38937;SDS011;24727;51.974;20.868;2022-08-21T15:48:20;3.78;;;3.42;;
38937;SDS011;24727;51.974;20.868;2022-08-21T15:50:48;3.60;;;3.30;;
38937;SDS011;24727;51.974;20.868;2022-08-21T15:53:14;4.57;;;3.28;;
38937;SDS011;24727;51.974;20.868;2022-08-21T15:58:16;5.70;;;3.33;;
38937;SDS011;24727;51.974;20.868;2022-08-21T16:00:45;9.70;;;7.90;;
38937;SDS011;24727;51.974;20.868;2022-08-21T16:03:13;13.68;;;12.27;;
38937;SDS011;24727;51.974;20.868;2022-08-21T16:05:42;6.38;;;5.78;;
38937;SDS011;24727;51.974;20.868;2022-08-21T16:08:10;3.83;;;3.53;;
38937;SDS011;24727;51.974;20.868;2022-08-21T16:10:36;5.03;;;3.50;;
38937;SDS011;24727;51.974;20.868;2022-08-21T16:13:04;4.75;;;3.28;;
38937;SDS011;24727;51.974;20.868;2022-08-21T16:15:37;3.42;;;3.08;;
38937;SDS011;24727;51.974;20.868;2022-08-21T16:18:04;11.35;;;4.55;;
38937;SDS011;24727;51.974;20.868;2022-08-21T16:20:31;5.00;;;3.90;;
38937;SDS011;24727;51.974;20.868;2022-08-21T16:22:57;4.22;;;3.28;;
38937;SDS011;24727;51.974;20.868;2022-08-21T16:25:23;6.50;;;4.95;;
38937;SDS011;24727;51.974;20.868;2022-08-21T16:27:51;3.45;;;3.15;;
38937;SDS011;24727;51.974;20.868;2022-08-21T16:30:23;8.25;;;3.83;;
38937;SDS011;24727;51.974;20.868;2022-08-21T16:32:51;7.10;;;3.40;;
38937;SDS011;24727;51.974;20.868;2022-08-21T16:35:18;6.65;;;4.03;;
38937;SDS011;24727;51.974;20.868;2022-08-21T16:37:45;3.53;;;3.22;;
38937;SDS011;24727;51.974;20.868;2022-08-21T16:40:12;5.28;;;3.95;;
38937;SDS011;24727;51.974;20.868;2022-08-21T16:42:40;3.40;;;3.20;;
38937;SDS011;24727;51.974;20.868;2022-08-21T16:45:09;3.85;;;3.13;;
38937;SDS011;24727;51.974;20.868;2022-08-21T16:47:42;3.65;;;3.28;;
38937;SDS011;24727;51.974;20.868;2022-08-21T16:50:14;24.20;;;14.65;;